sensor_id;sensor_type;location;lat;lon;timestamp;temperature;humidity
21445;DHT22;10883;51.946;20.140;2022-12-16T00:01:19;-6.60;99.90
21445;DHT22;10883;51.946;20.140;2022-12-16T00:03:52;-6.50;99.90
21445;DHT22;10883;51.946;20.140;2022-12-16T00:06:19;-6.50;99.90
21445;DHT22;10883;51.946;20.140;2022-12-16T00:08:45;-6.40;99.90
21445;DHT22;10883;51.946;20.140;2022-12-16T00:11:11;-6.40;99.90
21445;DHT22;10883;51.946;20.140;2022-12-16T00:13:38;-6.30;99.90
21445;DHT22;10883;51.946;20.140;2022-12-16T00:16:12;-6.30;99.90
21445;DHT22;10883;51.946;20.140;2022-12-16T00:18:38;-6.30;99.90
21445;DHT22;10883;51.946;20.140;2022-12-16T00:21:04;-6.30;99.90
21445;DHT22;10883;51.946;20.140;2022-12-16T00:23:31;-6.20;99.90
21445;DHT22;10883;51.946;20.140;2022-12-16T00:25:56;-6.20;99.90
21445;DHT22;10883;51.946;20.140;2022-12-16T00:28:23;-6.20;99.90
21445;DHT22;10883;51.946;20.140;2022-12-16T00:30:51;-6.10;99.90
21445;DHT22;10883;51.946;20.140;2022-12-16T00:33:18;-6.10;99.90
21445;DHT22;10883;51.946;20.140;2022-12-16T00:35:45;-6.10;99.90
21445;DHT22;10883;51.946;20.140;2022-12-16T00:38:11;-6.10;99.90
21445;DHT22;10883;51.946;20.140;2022-12-16T00:40:37;-6.00;99.90
21445;DHT22;10883;51.946;20.140;2022-12-16T00:43:03;-6.00;99.90
21445;DHT22;10883;51.946;20.140;2022-12-16T00:45:29;-6.00;99.90
21445;DHT22;10883;51.946;20.140;2022-12-16T00:47:56;-5.90;99.90
21445;DHT22;10883;51.946;20.140;2022-12-16T00:50:22;-5.90;99.90
21445;DHT22;10883;51.946;20.140;2022-12-16T00:52:48;-5.80;99.90
21445;DHT22;10883;51.946;20.140;2022-12-16T00:55:14;-5.80;99.90
21445;DHT22;10883;51.946;20.140;2022-12-16T00:57:40;-5.70;99.90
21445;DHT22;10883;51.946;20.140;2022-12-16T01:00:07;-5.70;99.90
21445;DHT22;10883;51.946;20.140;2022-12-16T01:02:38;-5.60;99.90
21445;DHT22;10883;51.946;20.140;2022-12-16T01:05:05;-5.60;99.90
21445;DHT22;10883;51.946;20.140;2022-12-16T01:07:31;-5.70;99.90
21445;DHT22;10883;51.946;20.140;2022-12-16T01:09:57;-5.70;99.90
21445;DHT22;10883;51.946;20.140;2022-12-16T01:12:22;-5.70;99.90
21445;DHT22;10883;51.946;20.140;2022-12-16T01:14:48;-5.70;99.90
21445;DHT22;10883;51.946;20.140;2022-12-16T01:17:14;-5.70;99.90
21445;DHT22;10883;51.946;20.140;2022-12-16T01:19:40;-5.70;99.90
21445;DHT22;10883;51.946;20.140;2022-12-16T01:22:06;-5.70;99.90
21445;DHT22;10883;51.946;20.140;2022-12-16T01:24:32;-5.60;99.90
21445;DHT22;10883;51.946;20.140;2022-12-16T01:26:57;-5.50;99.90
21445;DHT22;10883;51.946;20.140;2022-12-16T01:29:23;-5.50;99.90
21445;DHT22;10883;51.946;20.140;2022-12-16T01:31:50;-5.50;99.90
21445;DHT22;10883;51.946;20.140;2022-12-16T01:34:16;-5.50;99.90
21445;DHT22;10883;51.946;20.140;2022-12-16T01:36:42;-5.40;99.90
21445;DHT22;10883;51.946;20.140;2022-12-16T01:39:11;-5.30;99.90
21445;DHT22;10883;51.946;20.140;2022-12-16T01:41:37;-5.20;99.90
21445;DHT22;10883;51.946;20.140;2022-12-16T01:44:18;-5.20;99.90
21445;DHT22;10883;51.946;20.140;2022-12-16T01:46:56;-5.20;99.90
21445;DHT22;10883;51.946;20.140;2022-12-16T01:49:29;-5.20;99.90
21445;DHT22;10883;51.946;20.140;2022-12-16T01:52:01;-5.20;99.90
21445;DHT22;10883;51.946;20.140;2022-12-16T01:54:33;-5.20;99.90
21445;DHT22;10883;51.946;20.140;2022-12-16T01:57:05;-5.20;99.90
21445;DHT22;10883;51.946;20.140;2022-12-16T01:59:32;-5.20;99.90
21445;DHT22;10883;51.946;20.140;2022-12-16T02:01:59;-5.20;99.90
21445;DHT22;10883;51.946;20.140;2022-12-16T02:04:26;-5.20;99.90
21445;DHT22;10883;51.946;20.140;2022-12-16T02:06:52;-5.20;99.90
21445;DHT22;10883;51.946;20.140;2022-12-16T02:09:18;-5.20;99.90
21445;DHT22;10883;51.946;20.140;2022-12-16T02:15:04;-5.20;99.90
21445;DHT22;10883;51.946;20.140;2022-12-16T02:17:57;-5.20;99.90
21445;DHT22;10883;51.946;20.140;2022-12-16T02:20:33;-5.10;99.90
21445;DHT22;10883;51.946;20.140;2022-12-16T02:28:52;-4.80;99.90
21445;DHT22;10883;51.946;20.140;2022-12-16T02:31:37;-4.80;99.90
21445;DHT22;10883;51.946;20.140;2022-12-16T02:34:20;-4.80;99.90
21445;DHT22;10883;51.946;20.140;2022-12-16T02:37:01;-4.70;99.90
21445;DHT22;10883;51.946;20.140;2022-12-16T02:39:38;-4.60;99.90
21445;DHT22;10883;51.946;20.140;2022-12-16T02:45:00;-4.50;99.90
21445;DHT22;10883;51.946;20.140;2022-12-16T02:47:27;-4.50;99.90
21445;DHT22;10883;51.946;20.140;2022-12-16T02:49:54;-4.50;99.90
21445;DHT22;10883;51.946;20.140;2022-12-16T02:52:25;-4.50;99.90
21445;DHT22;10883;51.946;20.140;2022-12-16T02:55:10;-4.50;99.90
21445;DHT22;10883;51.946;20.140;2022-12-16T03:00:22;-4.50;99.90
21445;DHT22;10883;51.946;20.140;2022-12-16T03:03:07;-4.50;99.90
21445;DHT22;10883;51.946;20.140;2022-12-16T03:05:39;-4.50;99.90
21445;DHT22;10883;51.946;20.140;2022-12-16T03:08:16;-4.50;99.90
21445;DHT22;10883;51.946;20.140;2022-12-16T03:10:54;-4.50;99.90
21445;DHT22;10883;51.946;20.140;2022-12-16T03:13:20;-4.40;99.90
21445;DHT22;10883;51.946;20.140;2022-12-16T03:15:48;-4.40;99.90
21445;DHT22;10883;51.946;20.140;2022-12-16T03:18:18;-4.40;99.90
21445;DHT22;10883;51.946;20.140;2022-12-16T03:21:03;-4.30;99.90
21445;DHT22;10883;51.946;20.140;2022-12-16T03:23:34;-4.30;99.90
21445;DHT22;10883;51.946;20.140;2022-12-16T03:26:06;-4.30;99.90
21445;DHT22;10883;51.946;20.140;2022-12-16T03:28:50;-4.30;99.90
21445;DHT22;10883;51.946;20.140;2022-12-16T03:31:35;-4.40;99.90
21445;DHT22;10883;51.946;20.140;2022-12-16T03:34:08;-4.40;99.90
21445;DHT22;10883;51.946;20.140;2022-12-16T03:36:38;-4.40;99.90
21445;DHT22;10883;51.946;20.140;2022-12-16T03:39:07;-4.30;99.90
21445;DHT22;10883;51.946;20.140;2022-12-16T03:41:34;-4.30;99.90
21445;DHT22;10883;51.946;20.140;2022-12-16T03:44:00;-4.30;99.90
21445;DHT22;10883;51.946;20.140;2022-12-16T03:46:26;-4.30;99.90
21445;DHT22;10883;51.946;20.140;2022-12-16T03:48:53;-4.30;99.90
21445;DHT22;10883;51.946;20.140;2022-12-16T03:51:19;-4.40;99.90
21445;DHT22;10883;51.946;20.140;2022-12-16T03:53:45;-4.40;99.90
21445;DHT22;10883;51.946;20.140;2022-12-16T03:56:12;-4.40;99.90
21445;DHT22;10883;51.946;20.140;2022-12-16T03:58:38;-4.40;99.90
21445;DHT22;10883;51.946;20.140;2022-12-16T04:01:08;-4.40;99.90
21445;DHT22;10883;51.946;20.140;2022-12-16T04:03:35;-4.40;99.90
21445;DHT22;10883;51.946;20.140;2022-12-16T04:06:02;-4.30;99.90
21445;DHT22;10883;51.946;20.140;2022-12-16T04:08:28;-4.30;99.90
21445;DHT22;10883;51.946;20.140;2022-12-16T04:10:54;-4.30;99.90
21445;DHT22;10883;51.946;20.140;2022-12-16T04:13:38;-4.30;99.90
21445;DHT22;10883;51.946;20.140;2022-12-16T04:16:25;-4.20;99.90
21445;DHT22;10883;51.946;20.140;2022-12-16T04:19:24;-4.20;99.90
21445;DHT22;10883;51.946;20.140;2022-12-16T04:25:27;-4.40;99.90
21445;DHT22;10883;51.946;20.140;2022-12-16T04:27:54;-4.30;99.90
21445;DHT22;10883;51.946;20.140;2022-12-16T04:30:20;-4.30;99.90
21445;DHT22;10883;51.946;20.140;2022-12-16T04:33:18;-4.20;99.90
21445;DHT22;10883;51.946;20.140;2022-12-16T04:36:03;-4.20;99.90
21445;DHT22;10883;51.946;20.140;2022-12-16T04:38:47;-4.10;99.90
21445;DHT22;10883;51.946;20.140;2022-12-16T04:41:31;-4.10;99.90
21445;DHT22;10883;51.946;20.140;2022-12-16T04:44:16;-4.10;99.90
21445;DHT22;10883;51.946;20.140;2022-12-16T04:47:00;-4.10;99.90
21445;DHT22;10883;51.946;20.140;2022-12-16T04:49:44;-4.10;99.90
21445;DHT22;10883;51.946;20.140;2022-12-16T04:52:28;-4.10;99.90
21445;DHT22;10883;51.946;20.140;2022-12-16T04:55:12;-4.00;99.90
21445;DHT22;10883;51.946;20.140;2022-12-16T04:57:58;-4.00;99.90
21445;DHT22;10883;51.946;20.140;2022-12-16T05:00:44;-3.90;99.90
21445;DHT22;10883;51.946;20.140;2022-12-16T05:03:28;-3.90;99.90
21445;DHT22;10883;51.946;20.140;2022-12-16T05:06:13;-3.90;99.90
21445;DHT22;10883;51.946;20.140;2022-12-16T05:08:57;-3.90;99.90
21445;DHT22;10883;51.946;20.140;2022-12-16T05:11:41;-3.90;99.90
21445;DHT22;10883;51.946;20.140;2022-12-16T05:14:26;-3.90;99.90
21445;DHT22;10883;51.946;20.140;2022-12-16T05:17:10;-3.80;99.90
21445;DHT22;10883;51.946;20.140;2022-12-16T05:19:55;-3.90;99.90
21445;DHT22;10883;51.946;20.140;2022-12-16T05:22:39;-3.80;99.90
21445;DHT22;10883;51.946;20.140;2022-12-16T05:25:23;-3.80;99.90
21445;DHT22;10883;51.946;20.140;2022-12-16T05:28:09;-3.80;99.90
21445;DHT22;10883;51.946;20.140;2022-12-16T05:30:54;-3.80;99.90
21445;DHT22;10883;51.946;20.140;2022-12-16T05:33:38;-3.70;99.90
21445;DHT22;10883;51.946;20.140;2022-12-16T05:36:22;-3.60;99.90
21445;DHT22;10883;51.946;20.140;2022-12-16T05:39:06;-3.60;99.90
21445;DHT22;10883;51.946;20.140;2022-12-16T05:41:50;-3.50;99.90
21445;DHT22;10883;51.946;20.140;2022-12-16T05:44:34;-3.50;99.90
21445;DHT22;10883;51.946;20.140;2022-12-16T05:47:18;-3.50;99.90
21445;DHT22;10883;51.946;20.140;2022-12-16T05:50:04;-3.50;99.90
21445;DHT22;10883;51.946;20.140;2022-12-16T05:52:52;-3.50;99.90
21445;DHT22;10883;51.946;20.140;2022-12-16T05:55:37;-3.50;99.90
21445;DHT22;10883;51.946;20.140;2022-12-16T05:58:21;-3.50;99.90
21445;DHT22;10883;51.946;20.140;2022-12-16T06:01:06;-3.50;99.90
21445;DHT22;10883;51.946;20.140;2022-12-16T06:03:50;-3.50;99.90
21445;DHT22;10883;51.946;20.140;2022-12-16T06:06:34;-3.50;99.90
21445;DHT22;10883;51.946;20.140;2022-12-16T06:09:19;-3.50;99.90
21445;DHT22;10883;51.946;20.140;2022-12-16T06:12:03;-3.50;99.90
21445;DHT22;10883;51.946;20.140;2022-12-16T06:14:48;-3.50;99.90
21445;DHT22;10883;51.946;20.140;2022-12-16T06:17:32;-3.50;99.90
21445;DHT22;10883;51.946;20.140;2022-12-16T06:20:16;-3.40;99.90
21445;DHT22;10883;51.946;20.140;2022-12-16T06:23:00;-3.40;99.90
21445;DHT22;10883;51.946;20.140;2022-12-16T06:25:44;-3.40;99.90
21445;DHT22;10883;51.946;20.140;2022-12-16T06:28:29;-3.40;99.90
21445;DHT22;10883;51.946;20.140;2022-12-16T06:31:13;-3.30;99.90
21445;DHT22;10883;51.946;20.140;2022-12-16T06:33:57;-3.30;99.90
21445;DHT22;10883;51.946;20.140;2022-12-16T06:36:41;-3.20;99.90
21445;DHT22;10883;51.946;20.140;2022-12-16T06:39:25;-3.20;99.90
21445;DHT22;10883;51.946;20.140;2022-12-16T06:42:09;-3.20;99.90
21445;DHT22;10883;51.946;20.140;2022-12-16T06:44:54;-3.20;99.90
21445;DHT22;10883;51.946;20.140;2022-12-16T06:47:38;-3.10;99.90
21445;DHT22;10883;51.946;20.140;2022-12-16T06:50:22;-3.10;99.90
21445;DHT22;10883;51.946;20.140;2022-12-16T06:53:06;-3.10;99.90
21445;DHT22;10883;51.946;20.140;2022-12-16T06:55:51;-3.10;99.90
21445;DHT22;10883;51.946;20.140;2022-12-16T06:58:35;-3.10;99.90
21445;DHT22;10883;51.946;20.140;2022-12-16T07:01:19;-3.00;99.90
21445;DHT22;10883;51.946;20.140;2022-12-16T07:04:03;-3.00;99.90
21445;DHT22;10883;51.946;20.140;2022-12-16T07:06:47;-3.00;99.90
21445;DHT22;10883;51.946;20.140;2022-12-16T07:09:31;-3.00;99.90
21445;DHT22;10883;51.946;20.140;2022-12-16T07:12:16;-2.90;99.90
21445;DHT22;10883;51.946;20.140;2022-12-16T07:15:00;-3.00;99.90
21445;DHT22;10883;51.946;20.140;2022-12-16T07:17:44;-3.00;99.90
21445;DHT22;10883;51.946;20.140;2022-12-16T07:20:29;-3.00;99.90
21445;DHT22;10883;51.946;20.140;2022-12-16T07:23:13;-3.00;99.90
21445;DHT22;10883;51.946;20.140;2022-12-16T07:25:58;-3.00;99.90
21445;DHT22;10883;51.946;20.140;2022-12-16T07:28:42;-3.00;99.90
21445;DHT22;10883;51.946;20.140;2022-12-16T07:31:26;-2.90;99.90
21445;DHT22;10883;51.946;20.140;2022-12-16T07:34:11;-2.80;99.90
21445;DHT22;10883;51.946;20.140;2022-12-16T07:36:56;-2.80;99.90
21445;DHT22;10883;51.946;20.140;2022-12-16T07:39:41;-2.70;99.90
21445;DHT22;10883;51.946;20.140;2022-12-16T07:42:25;-2.80;99.90
21445;DHT22;10883;51.946;20.140;2022-12-16T07:45:09;-2.80;99.90
21445;DHT22;10883;51.946;20.140;2022-12-16T07:47:54;-2.80;99.90
21445;DHT22;10883;51.946;20.140;2022-12-16T07:50:38;-2.80;99.90
21445;DHT22;10883;51.946;20.140;2022-12-16T07:53:22;-2.80;99.90
21445;DHT22;10883;51.946;20.140;2022-12-16T07:56:07;-2.70;99.90
21445;DHT22;10883;51.946;20.140;2022-12-16T07:58:52;-2.70;99.90
21445;DHT22;10883;51.946;20.140;2022-12-16T08:01:36;-2.60;99.90
21445;DHT22;10883;51.946;20.140;2022-12-16T08:04:20;-2.70;99.90
21445;DHT22;10883;51.946;20.140;2022-12-16T08:07:05;-2.70;99.90
21445;DHT22;10883;51.946;20.140;2022-12-16T08:09:49;-2.70;99.90
21445;DHT22;10883;51.946;20.140;2022-12-16T08:12:33;-2.70;99.90
21445;DHT22;10883;51.946;20.140;2022-12-16T08:15:18;-2.70;99.90
21445;DHT22;10883;51.946;20.140;2022-12-16T08:18:02;-2.70;99.90
21445;DHT22;10883;51.946;20.140;2022-12-16T08:20:47;-2.60;99.90
21445;DHT22;10883;51.946;20.140;2022-12-16T08:23:31;-2.60;99.90
21445;DHT22;10883;51.946;20.140;2022-12-16T08:26:16;-2.60;99.90
21445;DHT22;10883;51.946;20.140;2022-12-16T08:29:00;-2.60;99.90
21445;DHT22;10883;51.946;20.140;2022-12-16T08:31:44;-2.60;99.90
21445;DHT22;10883;51.946;20.140;2022-12-16T08:34:28;-2.70;99.90
21445;DHT22;10883;51.946;20.140;2022-12-16T08:37:12;-2.60;99.90
21445;DHT22;10883;51.946;20.140;2022-12-16T08:39:56;-2.50;99.90
21445;DHT22;10883;51.946;20.140;2022-12-16T08:42:41;-2.40;99.90
21445;DHT22;10883;51.946;20.140;2022-12-16T08:45:25;-2.40;99.90
21445;DHT22;10883;51.946;20.140;2022-12-16T08:48:09;-2.40;99.90
21445;DHT22;10883;51.946;20.140;2022-12-16T08:50:54;-2.40;99.90
21445;DHT22;10883;51.946;20.140;2022-12-16T08:53:39;-2.40;99.90
21445;DHT22;10883;51.946;20.140;2022-12-16T08:56:23;-2.30;99.90
21445;DHT22;10883;51.946;20.140;2022-12-16T08:59:07;-2.40;99.90
21445;DHT22;10883;51.946;20.140;2022-12-16T09:01:52;-2.50;99.90
21445;DHT22;10883;51.946;20.140;2022-12-16T09:04:36;-2.40;99.90
21445;DHT22;10883;51.946;20.140;2022-12-16T09:07:20;-2.40;99.90
21445;DHT22;10883;51.946;20.140;2022-12-16T09:10:04;-2.30;99.90
21445;DHT22;10883;51.946;20.140;2022-12-16T09:12:49;-2.30;99.90
21445;DHT22;10883;51.946;20.140;2022-12-16T09:15:33;-2.30;99.90
21445;DHT22;10883;51.946;20.140;2022-12-16T09:18:17;-2.20;99.90
21445;DHT22;10883;51.946;20.140;2022-12-16T09:21:01;-2.20;99.90
21445;DHT22;10883;51.946;20.140;2022-12-16T09:23:46;-2.20;99.90
21445;DHT22;10883;51.946;20.140;2022-12-16T09:26:30;-2.10;99.90
21445;DHT22;10883;51.946;20.140;2022-12-16T09:29:14;-2.10;99.90
21445;DHT22;10883;51.946;20.140;2022-12-16T09:31:58;-2.10;99.90
21445;DHT22;10883;51.946;20.140;2022-12-16T09:34:42;-2.00;99.90
21445;DHT22;10883;51.946;20.140;2022-12-16T09:37:26;-2.00;99.90
21445;DHT22;10883;51.946;20.140;2022-12-16T09:40:15;-2.10;99.90
21445;DHT22;10883;51.946;20.140;2022-12-16T09:46:04;-2.10;99.90
21445;DHT22;10883;51.946;20.140;2022-12-16T09:52:13;-2.20;99.90
21445;DHT22;10883;51.946;20.140;2022-12-16T09:54:59;-2.10;99.90
21445;DHT22;10883;51.946;20.140;2022-12-16T09:57:44;-2.10;99.90
21445;DHT22;10883;51.946;20.140;2022-12-16T10:00:29;-1.90;99.90
21445;DHT22;10883;51.946;20.140;2022-12-16T10:03:19;-1.90;99.90
21445;DHT22;10883;51.946;20.140;2022-12-16T10:06:20;-1.90;99.90
21445;DHT22;10883;51.946;20.140;2022-12-16T10:15:31;-1.80;99.90
21445;DHT22;10883;51.946;20.140;2022-12-16T10:18:45;-1.90;99.90
21445;DHT22;10883;51.946;20.140;2022-12-16T10:21:47;-1.80;99.90
21445;DHT22;10883;51.946;20.140;2022-12-16T10:27:59;-1.70;99.90
21445;DHT22;10883;51.946;20.140;2022-12-16T10:30:45;-1.60;99.90
21445;DHT22;10883;51.946;20.140;2022-12-16T10:33:30;-1.50;99.90
21445;DHT22;10883;51.946;20.140;2022-12-16T10:36:21;-1.50;99.90
21445;DHT22;10883;51.946;20.140;2022-12-16T10:39:32;-1.30;99.90
21445;DHT22;10883;51.946;20.140;2022-12-16T10:42:29;-1.20;99.90
21445;DHT22;10883;51.946;20.140;2022-12-16T10:45:39;-1.20;99.90
21445;DHT22;10883;51.946;20.140;2022-12-16T10:48:26;-1.20;99.90
21445;DHT22;10883;51.946;20.140;2022-12-16T10:51:17;-1.20;99.90
21445;DHT22;10883;51.946;20.140;2022-12-16T10:57:09;-1.40;99.90
21445;DHT22;10883;51.946;20.140;2022-12-16T11:00:13;-1.40;99.90
21445;DHT22;10883;51.946;20.140;2022-12-16T11:03:19;-1.40;99.90
21445;DHT22;10883;51.946;20.140;2022-12-16T11:06:04;-1.40;99.90
21445;DHT22;10883;51.946;20.140;2022-12-16T11:08:49;-1.30;99.90
21445;DHT22;10883;51.946;20.140;2022-12-16T11:11:33;-1.30;99.90
21445;DHT22;10883;51.946;20.140;2022-12-16T11:14:26;-1.30;99.90
21445;DHT22;10883;51.946;20.140;2022-12-16T11:17:12;-1.20;99.90
21445;DHT22;10883;51.946;20.140;2022-12-16T11:23:19;-1.00;99.90
21445;DHT22;10883;51.946;20.140;2022-12-16T11:26:05;-1.00;99.90
21445;DHT22;10883;51.946;20.140;2022-12-16T11:29:10;-1.00;99.90
21445;DHT22;10883;51.946;20.140;2022-12-16T11:32:10;-1.00;99.90
21445;DHT22;10883;51.946;20.140;2022-12-16T11:34:59;-1.00;99.90
21445;DHT22;10883;51.946;20.140;2022-12-16T11:37:47;-1.00;99.90
21445;DHT22;10883;51.946;20.140;2022-12-16T11:40:33;-1.00;99.90
21445;DHT22;10883;51.946;20.140;2022-12-16T11:43:18;-1.10;99.90
21445;DHT22;10883;51.946;20.140;2022-12-16T11:46:09;-1.00;99.90
21445;DHT22;10883;51.946;20.140;2022-12-16T11:49:02;-0.80;99.90
21445;DHT22;10883;51.946;20.140;2022-12-16T11:51:55;-0.70;99.90
21445;DHT22;10883;51.946;20.140;2022-12-16T11:57:51;-0.40;99.90
21445;DHT22;10883;51.946;20.140;2022-12-16T12:00:45;-0.50;99.90
21445;DHT22;10883;51.946;20.140;2022-12-16T12:03:40;-0.60;99.90
21445;DHT22;10883;51.946;20.140;2022-12-16T12:09:34;-0.70;99.90
21445;DHT22;10883;51.946;20.140;2022-12-16T12:12:47;-0.70;99.90
21445;DHT22;10883;51.946;20.140;2022-12-16T12:15:43;-0.70;99.90
21445;DHT22;10883;51.946;20.140;2022-12-16T12:22:21;-0.80;99.90
21445;DHT22;10883;51.946;20.140;2022-12-16T12:25:29;-0.80;99.90
21445;DHT22;10883;51.946;20.140;2022-12-16T12:29:10;-0.80;99.90
21445;DHT22;10883;51.946;20.140;2022-12-16T12:38:28;-1.20;99.90
21445;DHT22;10883;51.946;20.140;2022-12-16T12:41:47;-1.30;99.90
21445;DHT22;10883;51.946;20.140;2022-12-16T12:47:40;-1.40;99.90
21445;DHT22;10883;51.946;20.140;2022-12-16T12:51:32;-1.40;99.90
21445;DHT22;10883;51.946;20.140;2022-12-16T12:56:48;-1.30;99.90
21445;DHT22;10883;51.946;20.140;2022-12-16T12:59:51;-1.40;99.90
21445;DHT22;10883;51.946;20.140;2022-12-16T13:02:53;-1.40;99.90
21445;DHT22;10883;51.946;20.140;2022-12-16T13:05:39;-1.50;99.90
21445;DHT22;10883;51.946;20.140;2022-12-16T13:08:57;-1.50;99.90
21445;DHT22;10883;51.946;20.140;2022-12-16T13:14:53;-1.50;99.90
21445;DHT22;10883;51.946;20.140;2022-12-16T13:21:03;-1.60;99.90
21445;DHT22;10883;51.946;20.140;2022-12-16T13:23:52;-1.60;99.90
21445;DHT22;10883;51.946;20.140;2022-12-16T13:27:00;-1.70;99.90
21445;DHT22;10883;51.946;20.140;2022-12-16T13:30:00;-1.80;99.90
21445;DHT22;10883;51.946;20.140;2022-12-16T13:32:54;-1.80;99.90
21445;DHT22;10883;51.946;20.140;2022-12-16T13:35:59;-1.70;99.90
21445;DHT22;10883;51.946;20.140;2022-12-16T13:38:48;-1.80;99.90
21445;DHT22;10883;51.946;20.140;2022-12-16T13:48:24;-1.90;99.90
21445;DHT22;10883;51.946;20.140;2022-12-16T13:50:40;-1.90;99.90
21445;DHT22;10883;51.946;20.140;2022-12-16T13:53:29;-1.80;99.90
21445;DHT22;10883;51.946;20.140;2022-12-16T13:56:19;-1.80;99.90
21445;DHT22;10883;51.946;20.140;2022-12-16T13:59:13;-1.90;99.90
21445;DHT22;10883;51.946;20.140;2022-12-16T14:02:29;-1.90;99.90
21445;DHT22;10883;51.946;20.140;2022-12-16T14:05:32;-1.90;99.90
21445;DHT22;10883;51.946;20.140;2022-12-16T14:08:21;-2.00;99.90
21445;DHT22;10883;51.946;20.140;2022-12-16T14:11:20;-2.00;99.90
21445;DHT22;10883;51.946;20.140;2022-12-16T14:14:15;-2.00;99.90
21445;DHT22;10883;51.946;20.140;2022-12-16T14:17:05;-2.00;99.90
21445;DHT22;10883;51.946;20.140;2022-12-16T14:20:10;-2.10;99.90
21445;DHT22;10883;51.946;20.140;2022-12-16T14:26:11;-2.10;99.90
21445;DHT22;10883;51.946;20.140;2022-12-16T14:28:56;-2.10;99.90
21445;DHT22;10883;51.946;20.140;2022-12-16T14:31:42;-2.20;99.90
21445;DHT22;10883;51.946;20.140;2022-12-16T14:34:33;-2.20;99.90
21445;DHT22;10883;51.946;20.140;2022-12-16T14:37:32;-2.20;99.90
21445;DHT22;10883;51.946;20.140;2022-12-16T14:40:27;-2.30;99.90
21445;DHT22;10883;51.946;20.140;2022-12-16T14:43:17;-2.30;99.90
21445;DHT22;10883;51.946;20.140;2022-12-16T14:46:02;-2.30;99.90
21445;DHT22;10883;51.946;20.140;2022-12-16T14:48:48;-2.30;99.90
21445;DHT22;10883;51.946;20.140;2022-12-16T14:51:54;-2.30;99.90
21445;DHT22;10883;51.946;20.140;2022-12-16T14:54:45;-2.30;99.90
21445;DHT22;10883;51.946;20.140;2022-12-16T14:57:31;-2.30;99.90
21445;DHT22;10883;51.946;20.140;2022-12-16T15:00:18;-2.30;99.90
21445;DHT22;10883;51.946;20.140;2022-12-16T15:03:44;-2.30;99.90
21445;DHT22;10883;51.946;20.140;2022-12-16T15:06:47;-2.30;99.90
21445;DHT22;10883;51.946;20.140;2022-12-16T15:09:41;-2.40;99.90
21445;DHT22;10883;51.946;20.140;2022-12-16T15:12:29;-2.40;99.90
21445;DHT22;10883;51.946;20.140;2022-12-16T15:15:25;-2.40;99.90
21445;DHT22;10883;51.946;20.140;2022-12-16T15:18:18;-2.40;99.90
21445;DHT22;10883;51.946;20.140;2022-12-16T15:21:05;-2.40;99.90
21445;DHT22;10883;51.946;20.140;2022-12-16T15:23:51;-2.40;99.90
21445;DHT22;10883;51.946;20.140;2022-12-16T15:26:35;-2.30;99.90
21445;DHT22;10883;51.946;20.140;2022-12-16T15:29:36;-2.40;99.90
21445;DHT22;10883;51.946;20.140;2022-12-16T15:35:08;-2.40;99.90
21445;DHT22;10883;51.946;20.140;2022-12-16T15:37:53;-2.40;99.90
21445;DHT22;10883;51.946;20.140;2022-12-16T15:40:39;-2.40;99.90
21445;DHT22;10883;51.946;20.140;2022-12-16T15:43:29;-2.40;99.90
21445;DHT22;10883;51.946;20.140;2022-12-16T15:46:20;-2.40;99.90
21445;DHT22;10883;51.946;20.140;2022-12-16T15:49:18;-2.40;99.90
21445;DHT22;10883;51.946;20.140;2022-12-16T15:52:32;-2.30;99.90
21445;DHT22;10883;51.946;20.140;2022-12-16T15:55:37;-2.40;99.90
21445;DHT22;10883;51.946;20.140;2022-12-16T15:58:35;-2.40;99.90
21445;DHT22;10883;51.946;20.140;2022-12-16T16:01:24;-2.30;99.90
21445;DHT22;10883;51.946;20.140;2022-12-16T16:04:22;-2.30;99.90
21445;DHT22;10883;51.946;20.140;2022-12-16T16:07:17;-2.40;99.90
21445;DHT22;10883;51.946;20.140;2022-12-16T16:10:14;-2.30;99.90
21445;DHT22;10883;51.946;20.140;2022-12-16T16:12:59;-2.40;99.90
21445;DHT22;10883;51.946;20.140;2022-12-16T16:15:43;-2.40;99.90
21445;DHT22;10883;51.946;20.140;2022-12-16T16:18:27;-2.40;99.90
21445;DHT22;10883;51.946;20.140;2022-12-16T16:21:11;-2.40;99.90
21445;DHT22;10883;51.946;20.140;2022-12-16T16:23:55;-2.40;99.90
21445;DHT22;10883;51.946;20.140;2022-12-16T16:26:40;-2.40;99.90
21445;DHT22;10883;51.946;20.140;2022-12-16T16:29:24;-2.50;99.90
21445;DHT22;10883;51.946;20.140;2022-12-16T16:32:09;-2.50;99.90
21445;DHT22;10883;51.946;20.140;2022-12-16T16:34:53;-2.50;99.90
21445;DHT22;10883;51.946;20.140;2022-12-16T16:37:38;-2.40;99.90
21445;DHT22;10883;51.946;20.140;2022-12-16T16:40:43;-2.40;99.90
21445;DHT22;10883;51.946;20.140;2022-12-16T16:43:28;-2.40;99.90
21445;DHT22;10883;51.946;20.140;2022-12-16T16:46:23;-2.40;99.90
21445;DHT22;10883;51.946;20.140;2022-12-16T16:49:19;-2.40;99.90
21445;DHT22;10883;51.946;20.140;2022-12-16T16:52:07;-2.50;99.90
21445;DHT22;10883;51.946;20.140;2022-12-16T16:54:53;-2.50;99.90
21445;DHT22;10883;51.946;20.140;2022-12-16T16:57:37;-2.50;99.90
21445;DHT22;10883;51.946;20.140;2022-12-16T17:00:21;-2.50;99.90
21445;DHT22;10883;51.946;20.140;2022-12-16T17:03:05;-2.50;99.90
21445;DHT22;10883;51.946;20.140;2022-12-16T17:05:49;-2.50;99.90
21445;DHT22;10883;51.946;20.140;2022-12-16T17:08:34;-2.50;99.90
21445;DHT22;10883;51.946;20.140;2022-12-16T17:11:20;-2.50;99.90
21445;DHT22;10883;51.946;20.140;2022-12-16T17:14:05;-2.50;99.90
21445;DHT22;10883;51.946;20.140;2022-12-16T17:16:53;-2.50;99.90
21445;DHT22;10883;51.946;20.140;2022-12-16T17:19:37;-2.50;99.90
21445;DHT22;10883;51.946;20.140;2022-12-16T17:22:21;-2.50;99.90
21445;DHT22;10883;51.946;20.140;2022-12-16T17:25:05;-2.50;99.90
21445;DHT22;10883;51.946;20.140;2022-12-16T17:27:50;-2.50;99.90
21445;DHT22;10883;51.946;20.140;2022-12-16T17:30:34;-2.50;99.90
21445;DHT22;10883;51.946;20.140;2022-12-16T17:33:18;-2.50;99.90
21445;DHT22;10883;51.946;20.140;2022-12-16T17:36:02;-2.60;99.90
21445;DHT22;10883;51.946;20.140;2022-12-16T17:38:47;-2.60;99.90
21445;DHT22;10883;51.946;20.140;2022-12-16T17:41:32;-2.60;99.90
21445;DHT22;10883;51.946;20.140;2022-12-16T17:44:17;-2.60;99.90
21445;DHT22;10883;51.946;20.140;2022-12-16T17:47:01;-2.50;99.90
21445;DHT22;10883;51.946;20.140;2022-12-16T17:49:46;-2.50;99.90
21445;DHT22;10883;51.946;20.140;2022-12-16T17:52:30;-2.50;99.90
21445;DHT22;10883;51.946;20.140;2022-12-16T17:55:15;-2.50;99.90
21445;DHT22;10883;51.946;20.140;2022-12-16T17:57:59;-2.50;99.90
21445;DHT22;10883;51.946;20.140;2022-12-16T18:00:44;-2.50;99.90
21445;DHT22;10883;51.946;20.140;2022-12-16T18:03:28;-2.50;99.90
21445;DHT22;10883;51.946;20.140;2022-12-16T18:06:12;-2.50;99.90
21445;DHT22;10883;51.946;20.140;2022-12-16T18:08:56;-2.50;99.90
21445;DHT22;10883;51.946;20.140;2022-12-16T18:11:40;-2.50;99.90
21445;DHT22;10883;51.946;20.140;2022-12-16T18:14:25;-2.50;99.90
21445;DHT22;10883;51.946;20.140;2022-12-16T18:17:09;-2.50;99.90
21445;DHT22;10883;51.946;20.140;2022-12-16T18:19:53;-2.60;99.90